WZZ1813 EPWR-LATI
Flight info
| Callsign | WZZ1813 |
|---|---|
| Flight time | 1h 27m |
| Altitude | 37000 |
| Route | PEKOT L616 DESEN DCT VALPI DCT TONDO DCT KOSIV DCT AKIKA T8 INLOT |
| Aircraft | A321/M-SDE3FGHIRWY/LB1 |
Departure
| Time | 2026-05-04 05:18 |
|---|---|
| Airport | Copernicus Wrocław Airport (EPWR) |
Arrival
| Time | 2026-05-04 06:46 |
|---|---|
| Airport | Tirana International Airport Mother Teresa (LATI) |
| Time | Latitude | Longitude | Altitude | Speed | Heading |
|---|---|---|---|---|---|
| 2026-05-04 05:09 | 51.10835 | 16.88093 | 421 ft | 0 kts | 26° |
| 2026-05-04 05:10 | 51.10817 | 16.88077 | 412 ft | 4 kts | 40° |
| 2026-05-04 05:11 | 51.10800 | 16.88046 | 414 ft | 4 kts | 68° |
| 2026-05-04 05:11 | 51.10795 | 16.88013 | 411 ft | 0 kts | 86° |
| 2026-05-04 05:14 | 51.10791 | 16.88031 | 412 ft | 5 kts | 114° |
| 2026-05-04 05:14 | 51.10757 | 16.88127 | 414 ft | 15 kts | 120° |
| 2026-05-04 05:14 | 51.10698 | 16.88291 | 419 ft | 18 kts | 118° |
| 2026-05-04 05:14 | 51.10641 | 16.88476 | 419 ft | 19 kts | 115° |
| 2026-05-04 05:15 | 51.10581 | 16.88676 | 419 ft | 21 kts | 116° |
| 2026-05-04 05:15 | 51.10516 | 16.88887 | 414 ft | 22 kts | 116° |
| 2026-05-04 05:15 | 51.10446 | 16.89113 | 414 ft | 24 kts | 117° |
| 2026-05-04 05:15 | 51.10397 | 16.89269 | 415 ft | 24 kts | 115° |
| 2026-05-04 05:16 | 51.10324 | 16.89512 | 417 ft | 25 kts | 117° |
| 2026-05-04 05:16 | 51.10226 | 16.89834 | 418 ft | 23 kts | 115° |
| 2026-05-04 05:16 | 51.10164 | 16.89972 | 418 ft | 11 kts | 166° |
| 2026-05-04 05:16 | 51.10111 | 16.89947 | 421 ft | 12 kts | 208° |
| 2026-05-04 05:17 | 51.10030 | 16.89881 | 417 ft | 14 kts | 206° |
| 2026-05-04 05:17 | 51.09934 | 16.89803 | 412 ft | 16 kts | 218° |
| 2026-05-04 05:17 | 51.09942 | 16.89651 | 412 ft | 16 kts | 296° |
| 2026-05-04 05:17 | 51.10086 | 16.89177 | 414 ft | 85 kts | 296° |
| 2026-05-04 05:18 | 51.10443 | 16.88001 | 407 ft | 148 kts | 296° |
| 2026-05-04 05:18 | 51.10933 | 16.86387 | 843 ft | 159 kts | 294° |
| 2026-05-04 05:18 | 51.11424 | 16.84828 | 1589 ft | 157 kts | 294° |
| 2026-05-04 05:18 | 51.11957 | 16.83292 | 2257 ft | 164 kts | 294° |
| 2026-05-04 05:19 | 51.12512 | 16.81590 | 2566 ft | 183 kts | 290° |
| 2026-05-04 05:19 | 51.12665 | 16.79504 | 2793 ft | 202 kts | 257° |
| 2026-05-04 05:19 | 51.11888 | 16.77553 | 2995 ft | 227 kts | 215° |
| 2026-05-04 05:19 | 51.10315 | 16.76827 | 3334 ft | 252 kts | 176° |
| 2026-05-04 05:20 | 51.08600 | 16.77659 | 3974 ft | 265 kts | 155° |
| 2026-05-04 05:20 | 51.07000 | 16.79164 | 4808 ft | 269 kts | 147° |
| 2026-05-04 05:20 | 51.05458 | 16.80865 | 5620 ft | 272 kts | 146° |
| 2026-05-04 05:20 | 51.03904 | 16.82608 | 6437 ft | 274 kts | 147° |
| 2026-05-04 05:21 | 51.02319 | 16.84321 | 7201 ft | 277 kts | 148° |
| 2026-05-04 05:21 | 51.00699 | 16.85991 | 7949 ft | 279 kts | 150° |
| 2026-05-04 05:21 | 50.99042 | 16.87635 | 8710 ft | 282 kts | 150° |
| 2026-05-04 05:21 | 50.97360 | 16.89268 | 9487 ft | 285 kts | 150° |
| 2026-05-04 05:22 | 50.95655 | 16.90902 | 10202 ft | 290 kts | 150° |
| 2026-05-04 05:22 | 50.93864 | 16.92607 | 10439 ft | 312 kts | 150° |
| 2026-05-04 05:22 | 50.91930 | 16.94439 | 10605 ft | 335 kts | 150° |
| 2026-05-04 05:22 | 50.89926 | 16.96339 | 11042 ft | 345 kts | 150° |
| 2026-05-04 05:23 | 50.87850 | 16.98309 | 11676 ft | 350 kts | 150° |
| 2026-05-04 05:23 | 50.85746 | 17.00305 | 12338 ft | 354 kts | 150° |
| 2026-05-04 05:23 | 50.83629 | 17.02311 | 13007 ft | 358 kts | 150° |
| 2026-05-04 05:23 | 50.81477 | 17.04351 | 13672 ft | 361 kts | 150° |
| 2026-05-04 05:24 | 50.79306 | 17.06410 | 14303 ft | 365 kts | 150° |
| 2026-05-04 05:24 | 50.77115 | 17.08484 | 14913 ft | 368 kts | 150° |
| 2026-05-04 05:24 | 50.74905 | 17.10571 | 15540 ft | 371 kts | 150° |
| 2026-05-04 05:24 | 50.72682 | 17.12670 | 16167 ft | 375 kts | 150° |
| 2026-05-04 05:25 | 50.70435 | 17.14792 | 16781 ft | 378 kts | 150° |
| 2026-05-04 05:25 | 50.68196 | 17.16903 | 17386 ft | 381 kts | 150° |
| 2026-05-04 05:25 | 50.65907 | 17.19058 | 17977 ft | 385 kts | 150° |
| 2026-05-04 05:25 | 50.63598 | 17.21227 | 18535 ft | 388 kts | 150° |
| 2026-05-04 05:26 | 50.61266 | 17.23420 | 19062 ft | 392 kts | 150° |
| 2026-05-04 05:26 | 50.58912 | 17.25630 | 19596 ft | 395 kts | 150° |
| 2026-05-04 05:26 | 50.56544 | 17.27847 | 20143 ft | 398 kts | 150° |
| 2026-05-04 05:26 | 50.54151 | 17.30082 | 20685 ft | 401 kts | 150° |
| 2026-05-04 05:27 | 50.51736 | 17.32333 | 21235 ft | 404 kts | 150° |
| 2026-05-04 05:28 | 50.33980 | 17.47358 | 24432 ft | 425 kts | 159° |
| 2026-05-04 05:29 | 50.31225 | 17.49064 | 24814 ft | 428 kts | 159° |
| 2026-05-04 05:29 | 50.28446 | 17.50783 | 25189 ft | 431 kts | 160° |
| 2026-05-04 05:29 | 50.25576 | 17.52202 | 25549 ft | 433 kts | 168° |
| 2026-05-04 05:29 | 50.22633 | 17.53255 | 25921 ft | 436 kts | 168° |
| 2026-05-04 05:31 | 50.01485 | 17.60763 | 28409 ft | 455 kts | 168° |
| 2026-05-04 05:31 | 49.98382 | 17.61851 | 28729 ft | 458 kts | 168° |
| 2026-05-04 05:32 | 49.95269 | 17.62946 | 29062 ft | 461 kts | 168° |
| 2026-05-04 05:32 | 49.92136 | 17.64049 | 29400 ft | 463 kts | 168° |
| 2026-05-04 05:32 | 49.88985 | 17.65159 | 29752 ft | 465 kts | 168° |
| 2026-05-04 05:33 | 49.82637 | 17.67386 | 30397 ft | 470 kts | 168° |
| 2026-05-04 05:33 | 49.79446 | 17.68500 | 30784 ft | 469 kts | 168° |
| 2026-05-04 05:33 | 49.76270 | 17.69607 | 31201 ft | 468 kts | 168° |
| 2026-05-04 05:33 | 49.73090 | 17.70720 | 31612 ft | 467 kts | 168° |
| 2026-05-04 05:34 | 49.69962 | 17.71819 | 31999 ft | 466 kts | 168° |
| 2026-05-04 05:34 | 49.66804 | 17.72925 | 32405 ft | 465 kts | 168° |
| 2026-05-04 05:34 | 49.63651 | 17.74026 | 32822 ft | 464 kts | 168° |
| 2026-05-04 05:34 | 49.60500 | 17.75126 | 33215 ft | 463 kts | 168° |
| 2026-05-04 05:35 | 49.57361 | 17.76215 | 33622 ft | 462 kts | 168° |
| 2026-05-04 05:35 | 49.54231 | 17.77298 | 34023 ft | 460 kts | 168° |
| 2026-05-04 05:35 | 49.51114 | 17.78374 | 34355 ft | 460 kts | 168° |
| 2026-05-04 05:35 | 49.47996 | 17.79448 | 34669 ft | 459 kts | 168° |
| 2026-05-04 05:36 | 49.44870 | 17.80524 | 34967 ft | 459 kts | 168° |
| 2026-05-04 05:36 | 49.41762 | 17.81596 | 35261 ft | 459 kts | 168° |
| 2026-05-04 05:36 | 49.38644 | 17.82670 | 35550 ft | 459 kts | 168° |
| 2026-05-04 05:36 | 49.35524 | 17.83743 | 35846 ft | 459 kts | 168° |
| 2026-05-04 05:37 | 49.32414 | 17.84808 | 36135 ft | 459 kts | 168° |
| 2026-05-04 05:37 | 49.29297 | 17.85873 | 36420 ft | 459 kts | 168° |
| 2026-05-04 05:37 | 49.26178 | 17.86939 | 36699 ft | 458 kts | 168° |
| 2026-05-04 05:38 | 49.19950 | 17.89069 | 37069 ft | 459 kts | 168° |
| 2026-05-04 05:38 | 49.16837 | 17.90132 | 37080 ft | 458 kts | 168° |
| 2026-05-04 05:38 | 49.10607 | 17.92255 | 37086 ft | 458 kts | 168° |
| 2026-05-04 05:39 | 49.01330 | 17.95576 | 37092 ft | 459 kts | 162° |
| 2026-05-04 05:40 | 48.92215 | 18.00140 | 37102 ft | 459 kts | 162° |
| 2026-05-04 05:40 | 48.86141 | 18.03178 | 37111 ft | 460 kts | 162° |
| 2026-05-04 05:41 | 48.80051 | 18.06209 | 37126 ft | 460 kts | 162° |
| 2026-05-04 05:41 | 48.73959 | 18.09236 | 37126 ft | 460 kts | 162° |
| 2026-05-04 05:42 | 48.67866 | 18.12245 | 37128 ft | 460 kts | 162° |
| 2026-05-04 05:42 | 48.61771 | 18.15249 | 37131 ft | 460 kts | 162° |
| 2026-05-04 05:43 | 48.55680 | 18.18249 | 37132 ft | 460 kts | 162° |
| 2026-05-04 05:45 | 48.31323 | 18.30170 | 37148 ft | 461 kts | 162° |
| 2026-05-04 05:47 | 48.06884 | 18.42002 | 37149 ft | 462 kts | 162° |
| 2026-05-04 05:47 | 48.00802 | 18.44926 | 37146 ft | 462 kts | 162° |
| 2026-05-04 05:48 | 47.94670 | 18.47867 | 37150 ft | 462 kts | 162° |
| 2026-05-04 05:48 | 47.88539 | 18.50803 | 37149 ft | 462 kts | 162° |
| 2026-05-04 05:49 | 47.82417 | 18.53737 | 37153 ft | 462 kts | 162° |
| 2026-05-04 05:49 | 47.76294 | 18.56654 | 37149 ft | 462 kts | 162° |
| 2026-05-04 05:51 | 47.51816 | 18.68230 | 37146 ft | 463 kts | 162° |
| 2026-05-04 05:52 | 47.45683 | 18.71120 | 37160 ft | 463 kts | 162° |
| 2026-05-04 05:52 | 47.39545 | 18.74010 | 37170 ft | 463 kts | 162° |
| 2026-05-04 05:54 | 47.14994 | 18.85460 | 37171 ft | 464 kts | 162° |
| 2026-05-04 05:55 | 47.08837 | 18.88313 | 37170 ft | 464 kts | 162° |
| 2026-05-04 05:55 | 47.02672 | 18.91172 | 37173 ft | 464 kts | 162° |
| 2026-05-04 05:56 | 46.96502 | 18.94020 | 37172 ft | 465 kts | 162° |
| 2026-05-04 05:56 | 46.90324 | 18.96856 | 37167 ft | 465 kts | 162° |
| 2026-05-04 05:57 | 46.84152 | 18.99691 | 37165 ft | 465 kts | 162° |
| 2026-05-04 05:57 | 46.77971 | 19.02526 | 37166 ft | 466 kts | 162° |
| 2026-05-04 05:58 | 46.71820 | 19.05335 | 37173 ft | 466 kts | 162° |
| 2026-05-04 05:58 | 46.65610 | 19.08166 | 37170 ft | 467 kts | 162° |
| 2026-05-04 05:59 | 46.59409 | 19.10995 | 37170 ft | 467 kts | 162° |
| 2026-05-04 05:59 | 46.53215 | 19.13809 | 37164 ft | 467 kts | 162° |
| 2026-05-04 06:00 | 46.46992 | 19.16623 | 37164 ft | 468 kts | 162° |
| 2026-05-04 06:00 | 46.40778 | 19.19426 | 37162 ft | 468 kts | 162° |
| 2026-05-04 06:01 | 46.34557 | 19.22233 | 37163 ft | 468 kts | 162° |
| 2026-05-04 06:03 | 46.09657 | 19.33381 | 37159 ft | 469 kts | 162° |
| 2026-05-04 06:05 | 45.81815 | 19.40877 | 37165 ft | 471 kts | 170° |
| 2026-05-04 06:06 | 45.75329 | 19.42376 | 37170 ft | 472 kts | 171° |
| 2026-05-04 06:06 | 45.68845 | 19.43866 | 37171 ft | 473 kts | 171° |
| 2026-05-04 06:07 | 45.62341 | 19.45359 | 37171 ft | 473 kts | 170° |
| 2026-05-04 06:07 | 45.55867 | 19.46844 | 37170 ft | 473 kts | 171° |
| 2026-05-04 06:08 | 45.49358 | 19.48320 | 37172 ft | 474 kts | 170° |
| 2026-05-04 06:08 | 45.42843 | 19.49806 | 37174 ft | 474 kts | 170° |
| 2026-05-04 06:09 | 45.36320 | 19.51294 | 37173 ft | 475 kts | 170° |
| 2026-05-04 06:11 | 45.10159 | 19.57196 | 37189 ft | 477 kts | 170° |
| 2026-05-04 06:13 | 44.83917 | 19.63083 | 37188 ft | 479 kts | 171° |
| 2026-05-04 06:14 | 44.60804 | 19.68193 | 37194 ft | 481 kts | 171° |
| 2026-05-04 06:15 | 44.54190 | 19.69653 | 37196 ft | 482 kts | 171° |
| 2026-05-04 06:15 | 44.47566 | 19.71118 | 37194 ft | 482 kts | 171° |
| 2026-05-04 06:16 | 44.40930 | 19.72579 | 37195 ft | 482 kts | 171° |
| 2026-05-04 06:16 | 44.34295 | 19.74026 | 37196 ft | 483 kts | 171° |
| 2026-05-04 06:17 | 44.27656 | 19.75473 | 37199 ft | 483 kts | 171° |
| 2026-05-04 06:17 | 44.21046 | 19.76914 | 37204 ft | 484 kts | 171° |
| 2026-05-04 06:18 | 44.14393 | 19.78358 | 37206 ft | 484 kts | 171° |
| 2026-05-04 06:20 | 43.87635 | 19.78783 | 37210 ft | 484 kts | 186° |
| 2026-05-04 06:21 | 43.70852 | 19.76448 | 37228 ft | 485 kts | 187° |
| 2026-05-04 06:21 | 43.67502 | 19.75980 | 37076 ft | 486 kts | 187° |
| 2026-05-04 06:22 | 43.64121 | 19.75510 | 36813 ft | 485 kts | 187° |
| 2026-05-04 06:22 | 43.60761 | 19.75046 | 36559 ft | 486 kts | 187° |
| 2026-05-04 06:25 | 43.16457 | 19.68933 | 29752 ft | 488 kts | 186° |
| 2026-05-04 06:25 | 43.13093 | 19.68474 | 29181 ft | 484 kts | 186° |
| 2026-05-04 06:26 | 43.09760 | 19.68018 | 28602 ft | 479 kts | 186° |
| 2026-05-04 06:26 | 43.06455 | 19.67565 | 27972 ft | 476 kts | 186° |
| 2026-05-04 06:26 | 43.03141 | 19.67109 | 27268 ft | 476 kts | 186° |
| 2026-05-04 06:26 | 42.99870 | 19.66661 | 26724 ft | 471 kts | 186° |
| 2026-05-04 06:27 | 42.87031 | 19.64917 | 24621 ft | 456 kts | 186° |
| 2026-05-04 06:28 | 42.83890 | 19.64491 | 24121 ft | 452 kts | 186° |
| 2026-05-04 06:28 | 42.80775 | 19.64070 | 23603 ft | 448 kts | 186° |
| 2026-05-04 06:28 | 42.77683 | 19.63652 | 23091 ft | 443 kts | 186° |
| 2026-05-04 06:28 | 42.74637 | 19.63242 | 22604 ft | 438 kts | 186° |
| 2026-05-04 06:29 | 42.71617 | 19.62836 | 22115 ft | 435 kts | 185° |
| 2026-05-04 06:29 | 42.68615 | 19.62432 | 21617 ft | 432 kts | 185° |
| 2026-05-04 06:29 | 42.65626 | 19.62030 | 21117 ft | 430 kts | 185° |
| 2026-05-04 06:29 | 42.62652 | 19.61632 | 20592 ft | 428 kts | 185° |
| 2026-05-04 06:30 | 42.59687 | 19.61236 | 20088 ft | 427 kts | 185° |
| 2026-05-04 06:30 | 42.56745 | 19.60841 | 19639 ft | 423 kts | 185° |
| 2026-05-04 06:30 | 42.53812 | 19.60490 | 19165 ft | 420 kts | 180° |
| 2026-05-04 06:30 | 42.50910 | 19.60614 | 18698 ft | 415 kts | 174° |
| 2026-05-04 06:31 | 42.48037 | 19.60900 | 18119 ft | 414 kts | 174° |
| 2026-05-04 06:31 | 42.45192 | 19.61185 | 17640 ft | 403 kts | 174° |
| 2026-05-04 06:31 | 42.42501 | 19.61450 | 17185 ft | 382 kts | 174° |
| 2026-05-04 06:31 | 42.39935 | 19.61700 | 16833 ft | 359 kts | 174° |
| 2026-05-04 06:32 | 42.37489 | 19.61936 | 16293 ft | 346 kts | 174° |
| 2026-05-04 06:33 | 42.20833 | 19.63562 | 13621 ft | 340 kts | 174° |
| 2026-05-04 06:34 | 42.18519 | 19.63786 | 13423 ft | 331 kts | 174° |
| 2026-05-04 06:34 | 42.16236 | 19.64007 | 12807 ft | 324 kts | 174° |
| 2026-05-04 06:34 | 42.14030 | 19.64221 | 12353 ft | 321 kts | 173° |
| 2026-05-04 06:34 | 42.11791 | 19.64438 | 11969 ft | 323 kts | 174° |
| 2026-05-04 06:35 | 42.09545 | 19.64658 | 11578 ft | 323 kts | 174° |
| 2026-05-04 06:36 | 41.94409 | 19.66108 | 9649 ft | 310 kts | 174° |
| 2026-05-04 06:37 | 41.92279 | 19.66314 | 9330 ft | 297 kts | 174° |
| 2026-05-04 06:37 | 41.90252 | 19.66508 | 8710 ft | 292 kts | 174° |
| 2026-05-04 06:37 | 41.88191 | 19.66708 | 8152 ft | 299 kts | 175° |
| 2026-05-04 06:37 | 41.86121 | 19.66907 | 7648 ft | 293 kts | 175° |
| 2026-05-04 06:38 | 41.84126 | 19.67098 | 7190 ft | 282 kts | 175° |
| 2026-05-04 06:38 | 41.82206 | 19.67280 | 6743 ft | 271 kts | 175° |
| 2026-05-04 06:40 | 41.70126 | 19.68230 | 4667 ft | 240 kts | 174° |
| 2026-05-04 06:40 | 41.68476 | 19.68452 | 4565 ft | 234 kts | 173° |
| 2026-05-04 06:40 | 41.66899 | 19.68662 | 4464 ft | 222 kts | 173° |
| 2026-05-04 06:40 | 41.65381 | 19.68866 | 4406 ft | 217 kts | 173° |
| 2026-05-04 06:41 | 41.63876 | 19.69067 | 4271 ft | 217 kts | 173° |
| 2026-05-04 06:41 | 41.62379 | 19.69268 | 4019 ft | 216 kts | 173° |
| 2026-05-04 06:41 | 41.60891 | 19.69467 | 3742 ft | 214 kts | 173° |
| 2026-05-04 06:41 | 41.59435 | 19.69662 | 3456 ft | 212 kts | 173° |
| 2026-05-04 06:42 | 41.57970 | 19.69858 | 3175 ft | 210 kts | 173° |
| 2026-05-04 06:42 | 41.56545 | 19.70047 | 2901 ft | 202 kts | 173° |
| 2026-05-04 06:42 | 41.55188 | 19.70229 | 2628 ft | 189 kts | 173° |
| 2026-05-04 06:44 | 41.47797 | 19.71215 | 1164 ft | 143 kts | 175° |
| 2026-05-04 06:44 | 41.46809 | 19.71339 | 959 ft | 142 kts | 176° |
| 2026-05-04 06:44 | 41.45829 | 19.71457 | 800 ft | 141 kts | 175° |
| 2026-05-04 06:45 | 41.44852 | 19.71588 | 636 ft | 141 kts | 175° |
| 2026-05-04 06:45 | 41.43873 | 19.71723 | 411 ft | 141 kts | 174° |
| 2026-05-04 06:45 | 41.42903 | 19.71863 | 211 ft | 140 kts | 173° |
| 2026-05-04 06:45 | 41.41966 | 19.71992 | 123 ft | 116 kts | 174° |
| 2026-05-04 06:46 | 41.41492 | 19.72050 | 126 ft | 38 kts | 174° |
| 2026-05-04 06:46 | 41.41373 | 19.72047 | 126 ft | 9 kts | 190° |
| 2026-05-04 06:46 | 41.41369 | 19.72059 | 123 ft | 1 kts | 83° |
| 2026-05-04 06:46 | 41.41385 | 19.72063 | 123 ft | 5 kts | 10° |
| 2026-05-04 06:48 | 41.41857 | 19.71691 | 132 ft | 13 kts | 265° |
| 2026-05-04 06:48 | 41.41883 | 19.71588 | 132 ft | 13 kts | 334° |
| 2026-05-04 06:49 | 41.41976 | 19.71571 | 132 ft | 14 kts | 354° |
| 2026-05-04 06:50 | 41.42106 | 19.71487 | 132 ft | 0 kts | 265° |